LROPLBWN

Guest
Details From LROP - Bucarest Otopeni Intl
To LBWN - Varna
Flight Number -
Tags Generated
Created
Modified
Stats Distance 110 nm / 204 km
Max Altitude 0 ft / 0 m
Waypoints 3
Social Downloads 3
Likes 0
Share VATSIM

Download

Looking for another format? Having issues loading an existing format? Contact us
Advertisement - Login to hide

Notes

Generated

Route

LROP R1830 LBWN

ID Type Via Altitude Latitude Longitude Leg Dist Tot Dist Heading (true) Name
O LROP APT - 0 ft / 0 m 44.57648˚ 26.08393˚ - 0 nm - -
R1830 FIX - 0 ft / 0 m 43.23344˚ 27.80983˚ 109 nm 109 nm 137° / 138° -
O LBWN APT - 0 ft / 0 m 43.23344˚ 27.80983˚ 0 nm 109 nm 0° / 180° -

Altitude Profile

Advertisement - Login to hide

LROP

Details ICAO LROP (OTP)
Name Bucarest Otopeni Intl
Region Romania
Timezone Europe/Bucharest (UTC+3.0)
Stats Elevation 314 ft / 96 m (AMSL)
Location 44.572161° 26.102177°
Runways 2
Magnetic Variation 5.654° E

METAR

LROP 261430Z 06015KT CAVOK 28/13 Q1018 NOSIG

Decode

TAF

TAF LROP 261100Z 2612/2712 05014KT CAVOK TEMPO 2612/2616 05016G26KT SCT045CB

Decode

Departure Runways

ID Width Length Bearing (true) Bearing (mag) Surface Threshold Offset Overrun Length
08L 148 ft / 45 m 11,457 ft / 3,492 m 83.91° 78.26° Asphalt 500 ft / 152 m 0 ft / 0 m
08R 148 ft / 45 m 11,455 ft / 3,491 m 83.89° 78.24° Asphalt 450 ft / 137 m 0 ft / 0 m
26L 148 ft / 45 m 11,455 ft / 3,491 m 263.92° 258.27° Asphalt 450 ft / 137 m 0 ft / 0 m
26R 148 ft / 45 m 11,457 ft / 3,492 m 263.94° 258.29° Asphalt 500 ft / 152 m 0 ft / 0 m

LBWN

Details ICAO LBWN (VAR)
Name Varna
Region Bulgaria
Timezone Europe/Sofia (UTC+3.0)
Stats Elevation 230 ft / 70 m (AMSL)
Location 43.232042° 27.825236°
Runways 1
Magnetic Variation 5.693° E

METAR

LBWN 261430Z 06015KT 9999 FEW040 24/16 Q1017 NOSIG

Decode

TAF

TAF LBWN 261100Z 2612/2712 01014KT 9999 SCT030 PROB40 TEMPO 2612/2618 VRB20KT 5000 TSRA SCT030CB BKN040 BECMG 2620/2622 VRB04KT BKN015 PROB40 TEMPO 2702/2706 5000 RA BKN010 OVC030 BECMG 2704/2706 04016KT

Decode

Destination Runways

ID Width Length Bearing (true) Bearing (mag) Surface Threshold Offset Overrun Length
09 180 ft / 55 m 8,254 ft / 2,516 m 97.11° 91.42° Concrete 350 ft / 107 m 0 ft / 0 m
27 180 ft / 55 m 8,254 ft / 2,516 m 277.13° 271.44° Concrete 350 ft / 107 m 0 ft / 0 m

Approach Navaids

Runway Type Ident Frequency Range Bearing (true) Bearing (mag) Slope Elevation
09 Localiser IWN 109.90 MHz 18 nm / 33 km 97.27° 91.57° - 230 ft / 70 m (AMSL)
09 Glidescope IWN 109.90 MHz 10 nm / 19 km 97.12° 91.43° 3.00° 230 ft / 70 m (AMSL)

Popular Alternatives